sensor_id;sensor_type;location;lat;lon;timestamp;temperature;humidity
2639;DHT22;1329;51.384;7.122;2022-07-15T00:00:05;19.10;1.00
2639;DHT22;1329;51.384;7.122;2022-07-15T00:02:34;19.10;1.00
2639;DHT22;1329;51.384;7.122;2022-07-15T00:05:01;19.10;1.00
2639;DHT22;1329;51.384;7.122;2022-07-15T00:07:28;19.00;1.00
2639;DHT22;1329;51.384;7.122;2022-07-15T00:09:56;19.00;1.00
2639;DHT22;1329;51.384;7.122;2022-07-15T00:12:45;19.00;1.00
2639;DHT22;1329;51.384;7.122;2022-07-15T00:15:14;19.00;1.00
2639;DHT22;1329;51.384;7.122;2022-07-15T00:17:42;18.90;1.00
2639;DHT22;1329;51.384;7.122;2022-07-15T00:20:10;19.00;1.00
2639;DHT22;1329;51.384;7.122;2022-07-15T00:22:39;19.00;1.00
2639;DHT22;1329;51.384;7.122;2022-07-15T00:25:09;19.00;1.00
2639;DHT22;1329;51.384;7.122;2022-07-15T00:27:50;19.00;1.00
2639;DHT22;1329;51.384;7.122;2022-07-15T00:30:22;19.00;1.00
2639;DHT22;1329;51.384;7.122;2022-07-15T00:32:50;19.00;1.00
2639;DHT22;1329;51.384;7.122;2022-07-15T00:35:17;19.00;1.00
2639;DHT22;1329;51.384;7.122;2022-07-15T00:37:45;19.00;1.00
2639;DHT22;1329;51.384;7.122;2022-07-15T00:40:14;19.00;1.00
2639;DHT22;1329;51.384;7.122;2022-07-15T00:42:41;19.00;1.00
2639;DHT22;1329;51.384;7.122;2022-07-15T00:45:11;19.00;1.00
2639;DHT22;1329;51.384;7.122;2022-07-15T00:47:39;19.00;1.00
2639;DHT22;1329;51.384;7.122;2022-07-15T00:50:07;19.00;1.00
2639;DHT22;1329;51.384;7.122;2022-07-15T00:52:40;18.90;1.00
2639;DHT22;1329;51.384;7.122;2022-07-15T00:55:09;18.90;1.00
2639;DHT22;1329;51.384;7.122;2022-07-15T00:57:41;18.90;1.00
2639;DHT22;1329;51.384;7.122;2022-07-15T01:00:11;18.90;1.00
2639;DHT22;1329;51.384;7.122;2022-07-15T01:02:40;18.90;1.00
2639;DHT22;1329;51.384;7.122;2022-07-15T01:05:10;18.90;1.00
2639;DHT22;1329;51.384;7.122;2022-07-15T01:07:38;18.90;1.00
2639;DHT22;1329;51.384;7.122;2022-07-15T01:10:06;18.90;1.00
2639;DHT22;1329;51.384;7.122;2022-07-15T01:12:34;18.90;1.00
2639;DHT22;1329;51.384;7.122;2022-07-15T01:15:05;18.90;1.00
2639;DHT22;1329;51.384;7.122;2022-07-15T01:17:32;18.90;1.00
2639;DHT22;1329;51.384;7.122;2022-07-15T01:19:59;18.90;1.00
2639;DHT22;1329;51.384;7.122;2022-07-15T01:22:28;18.90;1.00
2639;DHT22;1329;51.384;7.122;2022-07-15T01:24:55;18.90;1.00
2639;DHT22;1329;51.384;7.122;2022-07-15T01:27:22;19.00;1.00
2639;DHT22;1329;51.384;7.122;2022-07-15T01:29:49;19.00;1.00
2639;DHT22;1329;51.384;7.122;2022-07-15T01:32:17;19.00;1.00
2639;DHT22;1329;51.384;7.122;2022-07-15T01:34:44;19.10;1.00
2639;DHT22;1329;51.384;7.122;2022-07-15T01:37:13;19.10;1.00
2639;DHT22;1329;51.384;7.122;2022-07-15T01:39:42;19.10;1.00
2639;DHT22;1329;51.384;7.122;2022-07-15T01:42:09;19.20;1.00
2639;DHT22;1329;51.384;7.122;2022-07-15T01:44:36;19.20;1.00
2639;DHT22;1329;51.384;7.122;2022-07-15T01:47:04;19.30;1.00
2639;DHT22;1329;51.384;7.122;2022-07-15T01:49:31;19.20;1.00
2639;DHT22;1329;51.384;7.122;2022-07-15T01:52:00;19.20;1.00
2639;DHT22;1329;51.384;7.122;2022-07-15T01:54:30;19.20;1.00
2639;DHT22;1329;51.384;7.122;2022-07-15T01:57:00;19.30;1.00
2639;DHT22;1329;51.384;7.122;2022-07-15T01:59:27;19.30;1.00
2639;DHT22;1329;51.384;7.122;2022-07-15T02:01:57;19.30;1.00
2639;DHT22;1329;51.384;7.122;2022-07-15T02:04:24;19.30;1.00
2639;DHT22;1329;51.384;7.122;2022-07-15T02:06:52;19.30;1.00
2639;DHT22;1329;51.384;7.122;2022-07-15T02:09:19;19.30;1.00
2639;DHT22;1329;51.384;7.122;2022-07-15T02:11:46;19.30;1.00
2639;DHT22;1329;51.384;7.122;2022-07-15T02:14:15;19.30;1.00
2639;DHT22;1329;51.384;7.122;2022-07-15T02:16:42;19.30;1.00
2639;DHT22;1329;51.384;7.122;2022-07-15T02:19:09;19.30;1.00
2639;DHT22;1329;51.384;7.122;2022-07-15T02:21:36;19.30;1.00
2639;DHT22;1329;51.384;7.122;2022-07-15T02:24:04;19.30;1.00
2639;DHT22;1329;51.384;7.122;2022-07-15T02:26:31;19.20;1.00
2639;DHT22;1329;51.384;7.122;2022-07-15T02:28:58;19.30;1.00
2639;DHT22;1329;51.384;7.122;2022-07-15T02:31:28;19.20;1.00
2639;DHT22;1329;51.384;7.122;2022-07-15T02:33:55;19.30;1.00
2639;DHT22;1329;51.384;7.122;2022-07-15T02:36:22;19.20;1.00
2639;DHT22;1329;51.384;7.122;2022-07-15T02:38:49;19.20;1.00
2639;DHT22;1329;51.384;7.122;2022-07-15T02:41:16;19.20;1.00
2639;DHT22;1329;51.384;7.122;2022-07-15T02:43:43;19.10;1.00
2639;DHT22;1329;51.384;7.122;2022-07-15T02:46:11;19.10;1.00
2639;DHT22;1329;51.384;7.122;2022-07-15T02:48:40;19.00;1.00
2639;DHT22;1329;51.384;7.122;2022-07-15T02:51:08;19.00;1.00
2639;DHT22;1329;51.384;7.122;2022-07-15T02:53:35;19.00;1.00
2639;DHT22;1329;51.384;7.122;2022-07-15T02:56:03;18.90;1.00
2639;DHT22;1329;51.384;7.122;2022-07-15T02:58:31;18.80;1.00
2639;DHT22;1329;51.384;7.122;2022-07-15T03:00:59;18.80;1.00
2639;DHT22;1329;51.384;7.122;2022-07-15T03:03:26;18.70;1.00
2639;DHT22;1329;51.384;7.122;2022-07-15T03:05:56;18.70;1.00
2639;DHT22;1329;51.384;7.122;2022-07-15T03:08:23;18.60;1.00
2639;DHT22;1329;51.384;7.122;2022-07-15T03:10:50;18.50;1.00
2639;DHT22;1329;51.384;7.122;2022-07-15T03:13:18;18.50;1.00
2639;DHT22;1329;51.384;7.122;2022-07-15T03:15:45;18.50;1.00
2639;DHT22;1329;51.384;7.122;2022-07-15T03:18:13;18.30;1.00
2639;DHT22;1329;51.384;7.122;2022-07-15T03:20:40;18.30;1.00
2639;DHT22;1329;51.384;7.122;2022-07-15T03:23:09;18.20;1.00
2639;DHT22;1329;51.384;7.122;2022-07-15T03:25:36;18.10;1.00
2639;DHT22;1329;51.384;7.122;2022-07-15T03:28:04;18.10;1.00
2639;DHT22;1329;51.384;7.122;2022-07-15T03:30:31;18.00;1.00
2639;DHT22;1329;51.384;7.122;2022-07-15T03:32:58;18.00;1.00
2639;DHT22;1329;51.384;7.122;2022-07-15T03:35:26;17.90;1.00
2639;DHT22;1329;51.384;7.122;2022-07-15T03:37:55;17.90;1.00
2639;DHT22;1329;51.384;7.122;2022-07-15T03:40:24;17.80;1.00
2639;DHT22;1329;51.384;7.122;2022-07-15T03:42:55;17.80;1.00
2639;DHT22;1329;51.384;7.122;2022-07-15T03:45:24;17.80;1.00
2639;DHT22;1329;51.384;7.122;2022-07-15T03:47:51;17.70;1.00
2639;DHT22;1329;51.384;7.122;2022-07-15T03:50:19;17.60;1.00
2639;DHT22;1329;51.384;7.122;2022-07-15T03:52:46;17.60;1.00
2639;DHT22;1329;51.384;7.122;2022-07-15T03:55:13;17.60;1.00
2639;DHT22;1329;51.384;7.122;2022-07-15T03:57:42;17.50;1.00
2639;DHT22;1329;51.384;7.122;2022-07-15T04:00:10;17.50;1.00
2639;DHT22;1329;51.384;7.122;2022-07-15T04:02:38;17.40;1.00
2639;DHT22;1329;51.384;7.122;2022-07-15T04:05:06;17.50;1.00
2639;DHT22;1329;51.384;7.122;2022-07-15T04:07:35;17.40;1.00
2639;DHT22;1329;51.384;7.122;2022-07-15T04:10:03;17.40;1.00
2639;DHT22;1329;51.384;7.122;2022-07-15T04:12:30;17.40;1.00
2639;DHT22;1329;51.384;7.122;2022-07-15T04:15:01;17.40;1.00
2639;DHT22;1329;51.384;7.122;2022-07-15T04:17:28;17.30;1.00
2639;DHT22;1329;51.384;7.122;2022-07-15T04:19:55;17.30;1.00
2639;DHT22;1329;51.384;7.122;2022-07-15T04:22:23;17.30;1.00
2639;DHT22;1329;51.384;7.122;2022-07-15T04:24:50;17.30;1.00
2639;DHT22;1329;51.384;7.122;2022-07-15T04:27:17;17.30;1.00
2639;DHT22;1329;51.384;7.122;2022-07-15T04:29:45;17.20;1.00
2639;DHT22;1329;51.384;7.122;2022-07-15T04:32:13;17.20;1.00
2639;DHT22;1329;51.384;7.122;2022-07-15T04:34:45;17.20;1.00
2639;DHT22;1329;51.384;7.122;2022-07-15T04:37:12;17.20;1.00
2639;DHT22;1329;51.384;7.122;2022-07-15T04:39:40;17.20;1.00
2639;DHT22;1329;51.384;7.122;2022-07-15T04:42:07;17.20;1.00
2639;DHT22;1329;51.384;7.122;2022-07-15T04:44:34;17.30;1.00
2639;DHT22;1329;51.384;7.122;2022-07-15T04:47:02;17.20;1.00
2639;DHT22;1329;51.384;7.122;2022-07-15T04:49:31;17.30;1.00
2639;DHT22;1329;51.384;7.122;2022-07-15T04:52:16;17.30;1.00
2639;DHT22;1329;51.384;7.122;2022-07-15T04:54:43;17.30;1.00
2639;DHT22;1329;51.384;7.122;2022-07-15T04:57:10;17.30;1.00
2639;DHT22;1329;51.384;7.122;2022-07-15T04:59:38;17.40;1.00
2639;DHT22;1329;51.384;7.122;2022-07-15T05:02:05;17.40;1.00
2639;DHT22;1329;51.384;7.122;2022-07-15T05:04:34;17.40;1.00
2639;DHT22;1329;51.384;7.122;2022-07-15T05:07:03;17.50;1.00
2639;DHT22;1329;51.384;7.122;2022-07-15T05:09:31;17.50;1.00
2639;DHT22;1329;51.384;7.122;2022-07-15T05:12:00;17.50;1.00
2639;DHT22;1329;51.384;7.122;2022-07-15T05:14:28;17.60;1.00
2639;DHT22;1329;51.384;7.122;2022-07-15T05:16:55;17.60;1.00
2639;DHT22;1329;51.384;7.122;2022-07-15T05:19:22;17.60;1.00
2639;DHT22;1329;51.384;7.122;2022-07-15T05:21:54;17.60;1.00
2639;DHT22;1329;51.384;7.122;2022-07-15T05:24:21;17.70;1.00
2639;DHT22;1329;51.384;7.122;2022-07-15T05:26:48;17.70;1.00
2639;DHT22;1329;51.384;7.122;2022-07-15T05:29:17;17.70;1.00
2639;DHT22;1329;51.384;7.122;2022-07-15T05:31:47;17.70;1.00
2639;DHT22;1329;51.384;7.122;2022-07-15T05:34:15;17.80;1.00
2639;DHT22;1329;51.384;7.122;2022-07-15T05:36:42;17.80;1.00
2639;DHT22;1329;51.384;7.122;2022-07-15T05:39:11;17.90;1.00
2639;DHT22;1329;51.384;7.122;2022-07-15T05:41:38;17.90;1.00
2639;DHT22;1329;51.384;7.122;2022-07-15T05:44:05;18.00;1.00
2639;DHT22;1329;51.384;7.122;2022-07-15T05:46:33;18.00;1.00
2639;DHT22;1329;51.384;7.122;2022-07-15T05:49:00;18.10;1.00
2639;DHT22;1329;51.384;7.122;2022-07-15T05:51:28;18.10;1.00
2639;DHT22;1329;51.384;7.122;2022-07-15T05:53:55;18.20;1.00
2639;DHT22;1329;51.384;7.122;2022-07-15T05:56:24;18.20;1.00
2639;DHT22;1329;51.384;7.122;2022-07-15T05:58:54;18.30;1.00
2639;DHT22;1329;51.384;7.122;2022-07-15T06:01:21;18.30;1.00
2639;DHT22;1329;51.384;7.122;2022-07-15T06:03:49;18.40;1.00
2639;DHT22;1329;51.384;7.122;2022-07-15T06:06:17;18.30;1.00
2639;DHT22;1329;51.384;7.122;2022-07-15T06:08:45;18.40;1.00
2639;DHT22;1329;51.384;7.122;2022-07-15T06:11:12;18.40;1.00
2639;DHT22;1329;51.384;7.122;2022-07-15T06:13:42;18.40;1.00
2639;DHT22;1329;51.384;7.122;2022-07-15T06:16:09;18.50;1.00
2639;DHT22;1329;51.384;7.122;2022-07-15T06:18:36;18.40;1.00
2639;DHT22;1329;51.384;7.122;2022-07-15T06:21:04;18.50;1.00
2639;DHT22;1329;51.384;7.122;2022-07-15T06:23:32;18.50;1.00
2639;DHT22;1329;51.384;7.122;2022-07-15T06:25:59;18.60;1.00
2639;DHT22;1329;51.384;7.122;2022-07-15T06:28:26;18.60;1.00
2639;DHT22;1329;51.384;7.122;2022-07-15T06:30:56;18.60;1.00
2639;DHT22;1329;51.384;7.122;2022-07-15T06:33:23;18.60;1.00
2639;DHT22;1329;51.384;7.122;2022-07-15T06:35:52;18.60;1.00
2639;DHT22;1329;51.384;7.122;2022-07-15T06:38:20;18.60;1.00
2639;DHT22;1329;51.384;7.122;2022-07-15T06:40:47;18.60;1.00
2639;DHT22;1329;51.384;7.122;2022-07-15T06:43:15;18.70;1.00
2639;DHT22;1329;51.384;7.122;2022-07-15T06:45:42;18.70;1.00
2639;DHT22;1329;51.384;7.122;2022-07-15T06:48:11;18.70;1.00
2639;DHT22;1329;51.384;7.122;2022-07-15T06:50:38;18.70;1.00
2639;DHT22;1329;51.384;7.122;2022-07-15T06:53:06;18.70;1.00
2639;DHT22;1329;51.384;7.122;2022-07-15T06:55:33;18.70;1.00
2639;DHT22;1329;51.384;7.122;2022-07-15T06:58:00;18.80;1.00
2639;DHT22;1329;51.384;7.122;2022-07-15T07:00:28;18.80;1.00
2639;DHT22;1329;51.384;7.122;2022-07-15T07:02:55;18.90;1.00
2639;DHT22;1329;51.384;7.122;2022-07-15T07:05:25;18.90;1.00
2639;DHT22;1329;51.384;7.122;2022-07-15T07:07:53;19.00;1.00
2639;DHT22;1329;51.384;7.122;2022-07-15T07:10:21;19.00;1.00
2639;DHT22;1329;51.384;7.122;2022-07-15T07:12:48;19.10;1.00
2639;DHT22;1329;51.384;7.122;2022-07-15T07:15:15;19.20;1.00
2639;DHT22;1329;51.384;7.122;2022-07-15T07:17:43;19.30;1.00
2639;DHT22;1329;51.384;7.122;2022-07-15T07:20:11;19.40;1.00
2639;DHT22;1329;51.384;7.122;2022-07-15T07:22:39;19.60;1.00
2639;DHT22;1329;51.384;7.122;2022-07-15T07:25:07;19.70;1.00
2639;DHT22;1329;51.384;7.122;2022-07-15T07:27:35;19.70;1.00
2639;DHT22;1329;51.384;7.122;2022-07-15T07:30:03;19.80;1.00
2639;DHT22;1329;51.384;7.122;2022-07-15T07:32:31;19.90;1.00
2639;DHT22;1329;51.384;7.122;2022-07-15T07:35:00;19.90;1.00
2639;DHT22;1329;51.384;7.122;2022-07-15T07:37:29;20.00;1.00
2639;DHT22;1329;51.384;7.122;2022-07-15T07:40:03;20.10;1.00
2639;DHT22;1329;51.384;7.122;2022-07-15T07:42:32;20.20;1.00
2639;DHT22;1329;51.384;7.122;2022-07-15T07:45:00;20.20;1.00
2639;DHT22;1329;51.384;7.122;2022-07-15T07:47:28;20.20;1.00
2639;DHT22;1329;51.384;7.122;2022-07-15T07:49:55;20.20;1.00
2639;DHT22;1329;51.384;7.122;2022-07-15T07:52:22;20.30;1.00
2639;DHT22;1329;51.384;7.122;2022-07-15T07:54:50;20.30;1.00
2639;DHT22;1329;51.384;7.122;2022-07-15T07:57:18;20.30;1.00
2639;DHT22;1329;51.384;7.122;2022-07-15T07:59:46;20.30;1.00
2639;DHT22;1329;51.384;7.122;2022-07-15T08:02:13;20.30;1.00
2639;DHT22;1329;51.384;7.122;2022-07-15T08:04:40;20.30;1.00
2639;DHT22;1329;51.384;7.122;2022-07-15T08:07:11;20.30;1.00
2639;DHT22;1329;51.384;7.122;2022-07-15T08:09:38;20.30;1.00
2639;DHT22;1329;51.384;7.122;2022-07-15T08:12:06;20.30;1.00
2639;DHT22;1329;51.384;7.122;2022-07-15T08:14:35;20.30;1.00
2639;DHT22;1329;51.384;7.122;2022-07-15T08:17:04;20.30;1.00
2639;DHT22;1329;51.384;7.122;2022-07-15T08:19:32;20.40;1.00
2639;DHT22;1329;51.384;7.122;2022-07-15T08:22:01;20.40;1.00
2639;DHT22;1329;51.384;7.122;2022-07-15T08:24:29;20.50;1.00
2639;DHT22;1329;51.384;7.122;2022-07-15T08:26:56;20.50;1.00
2639;DHT22;1329;51.384;7.122;2022-07-15T08:29:23;20.60;1.00
2639;DHT22;1329;51.384;7.122;2022-07-15T08:31:52;20.70;1.00
2639;DHT22;1329;51.384;7.122;2022-07-15T08:34:19;20.70;1.00
2639;DHT22;1329;51.384;7.122;2022-07-15T08:36:47;20.70;1.00
2639;DHT22;1329;51.384;7.122;2022-07-15T08:39:17;20.80;1.00
2639;DHT22;1329;51.384;7.122;2022-07-15T08:41:45;20.70;1.00
2639;DHT22;1329;51.384;7.122;2022-07-15T08:44:12;20.70;1.00
2639;DHT22;1329;51.384;7.122;2022-07-15T08:46:51;20.70;1.00
2639;DHT22;1329;51.384;7.122;2022-07-15T08:49:20;20.70;1.00
2639;DHT22;1329;51.384;7.122;2022-07-15T08:51:50;20.60;1.00
2639;DHT22;1329;51.384;7.122;2022-07-15T08:54:18;20.70;1.00
2639;DHT22;1329;51.384;7.122;2022-07-15T08:56:48;20.60;1.00
2639;DHT22;1329;51.384;7.122;2022-07-15T08:59:17;20.60;1.00
2639;DHT22;1329;51.384;7.122;2022-07-15T09:01:46;20.70;1.00
2639;DHT22;1329;51.384;7.122;2022-07-15T09:04:19;20.70;1.00
2639;DHT22;1329;51.384;7.122;2022-07-15T09:06:48;21.00;1.00
2639;DHT22;1329;51.384;7.122;2022-07-15T09:09:27;21.30;1.00
2639;DHT22;1329;51.384;7.122;2022-07-15T09:11:58;21.70;1.00
2639;DHT22;1329;51.384;7.122;2022-07-15T09:14:27;22.20;1.00
2639;DHT22;1329;51.384;7.122;2022-07-15T09:17:06;22.60;1.00
2639;DHT22;1329;51.384;7.122;2022-07-15T09:20:06;23.20;1.00
2639;DHT22;1329;51.384;7.122;2022-07-15T09:22:53;23.70;1.00
2639;DHT22;1329;51.384;7.122;2022-07-15T09:25:28;24.30;1.00
2639;DHT22;1329;51.384;7.122;2022-07-15T09:27:59;24.70;1.00
2639;DHT22;1329;51.384;7.122;2022-07-15T09:30:42;25.00;1.00
2639;DHT22;1329;51.384;7.122;2022-07-15T09:33:38;25.20;1.00
2639;DHT22;1329;51.384;7.122;2022-07-15T09:36:13;25.20;1.00
2639;DHT22;1329;51.384;7.122;2022-07-15T09:39:04;25.00;1.00
2639;DHT22;1329;51.384;7.122;2022-07-15T09:41:42;24.70;1.00
2639;DHT22;1329;51.384;7.122;2022-07-15T09:44:13;24.40;1.00
2639;DHT22;1329;51.384;7.122;2022-07-15T09:46:43;24.10;1.00
2639;DHT22;1329;51.384;7.122;2022-07-15T09:49:31;23.90;1.00
2639;DHT22;1329;51.384;7.122;2022-07-15T09:52:03;23.70;1.00
2639;DHT22;1329;51.384;7.122;2022-07-15T09:54:40;23.40;1.00
2639;DHT22;1329;51.384;7.122;2022-07-15T09:57:10;23.30;1.00
2639;DHT22;1329;51.384;7.122;2022-07-15T09:59:41;23.10;1.00
2639;DHT22;1329;51.384;7.122;2022-07-15T10:02:14;23.00;1.00
2639;DHT22;1329;51.384;7.122;2022-07-15T10:04:43;22.90;1.00
2639;DHT22;1329;51.384;7.122;2022-07-15T10:07:17;22.80;1.00
2639;DHT22;1329;51.384;7.122;2022-07-15T10:09:46;22.70;1.00
2639;DHT22;1329;51.384;7.122;2022-07-15T10:12:19;22.70;1.00
2639;DHT22;1329;51.384;7.122;2022-07-15T10:15:03;22.70;1.00
2639;DHT22;1329;51.384;7.122;2022-07-15T10:17:50;22.70;1.00
2639;DHT22;1329;51.384;7.122;2022-07-15T10:20:47;22.70;1.00
2639;DHT22;1329;51.384;7.122;2022-07-15T10:23:37;22.70;1.00
2639;DHT22;1329;51.384;7.122;2022-07-15T10:26:23;22.60;1.00
2639;DHT22;1329;51.384;7.122;2022-07-15T10:28:58;22.70;1.00
2639;DHT22;1329;51.384;7.122;2022-07-15T10:31:33;22.80;1.00
2639;DHT22;1329;51.384;7.122;2022-07-15T10:34:19;22.80;1.00
2639;DHT22;1329;51.384;7.122;2022-07-15T10:37:02;22.90;1.00
2639;DHT22;1329;51.384;7.122;2022-07-15T10:39:56;22.90;1.00
2639;DHT22;1329;51.384;7.122;2022-07-15T10:42:59;22.90;1.00
2639;DHT22;1329;51.384;7.122;2022-07-15T10:45:28;22.90;1.00
2639;DHT22;1329;51.384;7.122;2022-07-15T10:48:27;22.80;1.00
2639;DHT22;1329;51.384;7.122;2022-07-15T10:50:56;22.70;1.00
2639;DHT22;1329;51.384;7.122;2022-07-15T10:53:25;22.60;1.00
2639;DHT22;1329;51.384;7.122;2022-07-15T10:55:56;22.50;1.00
2639;DHT22;1329;51.384;7.122;2022-07-15T10:59:13;22.50;1.00
2639;DHT22;1329;51.384;7.122;2022-07-15T11:01:44;22.50;1.00
2639;DHT22;1329;51.384;7.122;2022-07-15T11:04:16;22.40;1.00
2639;DHT22;1329;51.384;7.122;2022-07-15T11:07:24;22.40;1.00
2639;DHT22;1329;51.384;7.122;2022-07-15T11:10:15;22.50;1.00
2639;DHT22;1329;51.384;7.122;2022-07-15T11:13:02;22.60;1.00
2639;DHT22;1329;51.384;7.122;2022-07-15T11:15:33;22.70;1.00
2639;DHT22;1329;51.384;7.122;2022-07-15T11:18:02;22.80;1.00
2639;DHT22;1329;51.384;7.122;2022-07-15T11:20:32;22.90;1.00
2639;DHT22;1329;51.384;7.122;2022-07-15T11:23:02;23.00;1.00
2639;DHT22;1329;51.384;7.122;2022-07-15T11:25:37;23.10;1.00
2639;DHT22;1329;51.384;7.122;2022-07-15T11:28:12;23.20;1.00
2639;DHT22;1329;51.384;7.122;2022-07-15T11:30:45;23.20;1.00
2639;DHT22;1329;51.384;7.122;2022-07-15T11:33:16;23.30;1.00
2639;DHT22;1329;51.384;7.122;2022-07-15T11:35:50;23.20;1.00
2639;DHT22;1329;51.384;7.122;2022-07-15T11:38:31;23.20;1.00
2639;DHT22;1329;51.384;7.122;2022-07-15T11:41:05;23.20;1.00
2639;DHT22;1329;51.384;7.122;2022-07-15T11:43:58;23.10;1.00
2639;DHT22;1329;51.384;7.122;2022-07-15T11:46:47;23.20;1.00
2639;DHT22;1329;51.384;7.122;2022-07-15T11:49:30;23.30;1.00
2639;DHT22;1329;51.384;7.122;2022-07-15T11:52:00;23.30;1.00
2639;DHT22;1329;51.384;7.122;2022-07-15T11:54:36;23.20;1.00
2639;DHT22;1329;51.384;7.122;2022-07-15T11:57:07;23.20;1.00
2639;DHT22;1329;51.384;7.122;2022-07-15T11:59:39;23.20;1.00
2639;DHT22;1329;51.384;7.122;2022-07-15T12:02:08;23.20;1.00
2639;DHT22;1329;51.384;7.122;2022-07-15T12:04:40;23.20;1.00
2639;DHT22;1329;51.384;7.122;2022-07-15T12:07:10;23.10;1.00
2639;DHT22;1329;51.384;7.122;2022-07-15T12:09:39;23.10;1.00
2639;DHT22;1329;51.384;7.122;2022-07-15T12:12:12;23.00;1.00
2639;DHT22;1329;51.384;7.122;2022-07-15T12:14:45;23.00;1.00
2639;DHT22;1329;51.384;7.122;2022-07-15T12:17:14;22.90;1.00
2639;DHT22;1329;51.384;7.122;2022-07-15T12:19:47;22.90;1.00
2639;DHT22;1329;51.384;7.122;2022-07-15T12:22:18;22.90;1.00
2639;DHT22;1329;51.384;7.122;2022-07-15T12:24:54;22.80;1.00
2639;DHT22;1329;51.384;7.122;2022-07-15T12:27:54;22.90;1.00
2639;DHT22;1329;51.384;7.122;2022-07-15T12:30:51;23.10;1.00
2639;DHT22;1329;51.384;7.122;2022-07-15T12:33:41;23.20;1.00
2639;DHT22;1329;51.384;7.122;2022-07-15T12:36:18;23.40;1.00
2639;DHT22;1329;51.384;7.122;2022-07-15T12:39:17;23.50;1.00
2639;DHT22;1329;51.384;7.122;2022-07-15T12:42:06;23.70;1.00
2639;DHT22;1329;51.384;7.122;2022-07-15T12:45:04;23.70;1.00
2639;DHT22;1329;51.384;7.122;2022-07-15T12:47:37;23.80;1.00
2639;DHT22;1329;51.384;7.122;2022-07-15T12:50:10;23.80;1.00
2639;DHT22;1329;51.384;7.122;2022-07-15T12:52:44;23.80;1.00
2639;DHT22;1329;51.384;7.122;2022-07-15T12:55:14;23.80;1.00
2639;DHT22;1329;51.384;7.122;2022-07-15T12:58:03;23.70;1.00
2639;DHT22;1329;51.384;7.122;2022-07-15T13:00:40;23.70;1.00
2639;DHT22;1329;51.384;7.122;2022-07-15T13:03:23;23.60;1.00
2639;DHT22;1329;51.384;7.122;2022-07-15T13:05:54;23.50;1.00
2639;DHT22;1329;51.384;7.122;2022-07-15T13:08:26;23.60;1.00
2639;DHT22;1329;51.384;7.122;2022-07-15T13:11:05;23.60;1.00
2639;DHT22;1329;51.384;7.122;2022-07-15T13:13:43;23.60;1.00
2639;DHT22;1329;51.384;7.122;2022-07-15T13:16:14;23.80;1.00
2639;DHT22;1329;51.384;7.122;2022-07-15T13:18:44;23.90;1.00
2639;DHT22;1329;51.384;7.122;2022-07-15T13:21:17;24.10;1.00
2639;DHT22;1329;51.384;7.122;2022-07-15T13:23:51;24.30;1.00
2639;DHT22;1329;51.384;7.122;2022-07-15T13:26:26;24.50;1.00
2639;DHT22;1329;51.384;7.122;2022-07-15T13:29:03;24.60;1.00
2639;DHT22;1329;51.384;7.122;2022-07-15T13:31:42;24.90;1.00
2639;DHT22;1329;51.384;7.122;2022-07-15T13:34:15;25.10;1.00
2639;DHT22;1329;51.384;7.122;2022-07-15T13:36:51;25.20;1.00
2639;DHT22;1329;51.384;7.122;2022-07-15T13:39:24;25.20;1.00
2639;DHT22;1329;51.384;7.122;2022-07-15T13:41:56;25.30;1.00
2639;DHT22;1329;51.384;7.122;2022-07-15T13:44:29;25.30;1.00
2639;DHT22;1329;51.384;7.122;2022-07-15T13:47:05;25.30;1.00
2639;DHT22;1329;51.384;7.122;2022-07-15T13:50:03;25.30;1.00
2639;DHT22;1329;51.384;7.122;2022-07-15T13:53:03;25.30;1.00
2639;DHT22;1329;51.384;7.122;2022-07-15T13:55:34;25.20;1.00
2639;DHT22;1329;51.384;7.122;2022-07-15T13:58:14;25.20;1.00
2639;DHT22;1329;51.384;7.122;2022-07-15T14:00:57;25.10;1.00
2639;DHT22;1329;51.384;7.122;2022-07-15T14:03:33;25.00;1.00
2639;DHT22;1329;51.384;7.122;2022-07-15T14:06:15;24.90;1.00
2639;DHT22;1329;51.384;7.122;2022-07-15T14:08:44;24.80;1.00
2639;DHT22;1329;51.384;7.122;2022-07-15T14:11:18;24.80;1.00
2639;DHT22;1329;51.384;7.122;2022-07-15T14:13:51;24.80;1.00
2639;DHT22;1329;51.384;7.122;2022-07-15T14:16:40;24.80;1.00
2639;DHT22;1329;51.384;7.122;2022-07-15T14:19:30;24.80;1.00
2639;DHT22;1329;51.384;7.122;2022-07-15T14:22:14;24.60;1.00
2639;DHT22;1329;51.384;7.122;2022-07-15T14:24:49;24.50;1.00
2639;DHT22;1329;51.384;7.122;2022-07-15T14:27:36;24.50;1.00
2639;DHT22;1329;51.384;7.122;2022-07-15T14:30:15;24.40;1.00
2639;DHT22;1329;51.384;7.122;2022-07-15T14:32:52;24.40;1.00
2639;DHT22;1329;51.384;7.122;2022-07-15T14:36:00;24.40;1.00
2639;DHT22;1329;51.384;7.122;2022-07-15T14:38:37;24.50;1.00
2639;DHT22;1329;51.384;7.122;2022-07-15T14:41:15;24.50;1.00
2639;DHT22;1329;51.384;7.122;2022-07-15T14:43:50;24.50;1.00
2639;DHT22;1329;51.384;7.122;2022-07-15T14:46:33;24.60;1.00
2639;DHT22;1329;51.384;7.122;2022-07-15T14:49:06;24.60;1.00
2639;DHT22;1329;51.384;7.122;2022-07-15T14:52:04;24.60;1.00
2639;DHT22;1329;51.384;7.122;2022-07-15T14:54:50;24.60;1.00
2639;DHT22;1329;51.384;7.122;2022-07-15T14:57:50;24.60;1.00
2639;DHT22;1329;51.384;7.122;2022-07-15T15:00:37;24.60;1.00
2639;DHT22;1329;51.384;7.122;2022-07-15T15:03:10;24.60;1.00
2639;DHT22;1329;51.384;7.122;2022-07-15T15:06:05;24.60;1.00
2639;DHT22;1329;51.384;7.122;2022-07-15T15:09:07;24.60;1.00
2639;DHT22;1329;51.384;7.122;2022-07-15T15:12:00;24.70;1.00
2639;DHT22;1329;51.384;7.122;2022-07-15T15:14:52;24.60;1.00
2639;DHT22;1329;51.384;7.122;2022-07-15T15:17:25;24.60;1.00
2639;DHT22;1329;51.384;7.122;2022-07-15T15:20:00;24.60;1.00
2639;DHT22;1329;51.384;7.122;2022-07-15T15:22:50;24.60;1.00
2639;DHT22;1329;51.384;7.122;2022-07-15T15:25:34;24.60;1.00
2639;DHT22;1329;51.384;7.122;2022-07-15T15:28:34;24.70;1.00
2639;DHT22;1329;51.384;7.122;2022-07-15T15:31:02;24.80;1.00
2639;DHT22;1329;51.384;7.122;2022-07-15T15:33:38;24.80;1.00
2639;DHT22;1329;51.384;7.122;2022-07-15T15:36:27;24.90;1.00
2639;DHT22;1329;51.384;7.122;2022-07-15T15:38:59;25.10;1.00
2639;DHT22;1329;51.384;7.122;2022-07-15T15:41:30;25.30;1.00
2639;DHT22;1329;51.384;7.122;2022-07-15T15:44:13;25.50;1.00
2639;DHT22;1329;51.384;7.122;2022-07-15T15:46:53;25.70;1.00
2639;DHT22;1329;51.384;7.122;2022-07-15T15:49:37;25.90;1.00
2639;DHT22;1329;51.384;7.122;2022-07-15T15:52:41;26.20;1.00
2639;DHT22;1329;51.384;7.122;2022-07-15T15:55:39;26.30;1.00
2639;DHT22;1329;51.384;7.122;2022-07-15T16:01:30;26.60;1.00
2639;DHT22;1329;51.384;7.122;2022-07-15T16:04:44;26.70;1.00
2639;DHT22;1329;51.384;7.122;2022-07-15T16:11:07;26.90;1.00
2639;DHT22;1329;51.384;7.122;2022-07-15T16:14:16;26.90;1.00
2639;DHT22;1329;51.384;7.122;2022-07-15T16:16:58;26.90;1.00
2639;DHT22;1329;51.384;7.122;2022-07-15T16:19:44;26.90;1.00
2639;DHT22;1329;51.384;7.122;2022-07-15T16:22:34;27.00;1.00
2639;DHT22;1329;51.384;7.122;2022-07-15T16:28:40;27.10;1.00
2639;DHT22;1329;51.384;7.122;2022-07-15T16:31:16;27.10;1.00
2639;DHT22;1329;51.384;7.122;2022-07-15T16:34:07;27.00;1.00
2639;DHT22;1329;51.384;7.122;2022-07-15T16:39:32;27.00;1.00
2639;DHT22;1329;51.384;7.122;2022-07-15T16:40:25;26.90;1.00
2639;DHT22;1329;51.384;7.122;2022-07-15T16:43:40;26.90;1.00
2639;DHT22;1329;51.384;7.122;2022-07-15T16:46:51;26.80;1.00
2639;DHT22;1329;51.384;7.122;2022-07-15T16:49:41;26.90;1.00
2639;DHT22;1329;51.384;7.122;2022-07-15T16:52:21;27.00;1.00
2639;DHT22;1329;51.384;7.122;2022-07-15T16:58:38;27.00;1.00
2639;DHT22;1329;51.384;7.122;2022-07-15T17:01:48;27.00;1.00
2639;DHT22;1329;51.384;7.122;2022-07-15T17:04:49;26.90;1.00
2639;DHT22;1329;51.384;7.122;2022-07-15T17:10:28;26.60;1.00
2639;DHT22;1329;51.384;7.122;2022-07-15T17:13:52;26.30;1.00
2639;DHT22;1329;51.384;7.122;2022-07-15T17:16:27;26.10;1.00
2639;DHT22;1329;51.384;7.122;2022-07-15T17:19:01;25.90;1.00